sensor_id;sensor_type;location;lat;lon;timestamp;P1;durP1;ratioP1;P2;durP2;ratioP2
26050;SDS011;13825;53.496;10.020;2022-09-09T00:01:42;27.93;;;15.53;;
26050;SDS011;13825;53.496;10.020;2022-09-09T00:04:19;27.80;;;15.50;;
26050;SDS011;13825;53.496;10.020;2022-09-09T00:06:55;28.83;;;15.57;;
26050;SDS011;13825;53.496;10.020;2022-09-09T00:09:33;27.13;;;15.37;;
26050;SDS011;13825;53.496;10.020;2022-09-09T00:12:08;28.97;;;16.30;;
26050;SDS011;13825;53.496;10.020;2022-09-09T00:14:42;26.07;;;14.73;;
26050;SDS011;13825;53.496;10.020;2022-09-09T00:17:18;26.93;;;15.47;;
26050;SDS011;13825;53.496;10.020;2022-09-09T00:19:55;29.50;;;15.73;;
26050;SDS011;13825;53.496;10.020;2022-09-09T00:22:27;30.17;;;16.27;;
26050;SDS011;13825;53.496;10.020;2022-09-09T00:24:57;34.40;;;15.73;;
26050;SDS011;13825;53.496;10.020;2022-09-09T00:27:30;26.43;;;14.93;;
26050;SDS011;13825;53.496;10.020;2022-09-09T00:30:13;26.47;;;15.17;;
26050;SDS011;13825;53.496;10.020;2022-09-09T00:32:43;24.17;;;13.60;;
26050;SDS011;13825;53.496;10.020;2022-09-09T00:35:14;24.63;;;13.77;;
26050;SDS011;13825;53.496;10.020;2022-09-09T00:37:44;25.73;;;13.87;;
26050;SDS011;13825;53.496;10.020;2022-09-09T00:40:16;23.30;;;12.77;;
26050;SDS011;13825;53.496;10.020;2022-09-09T00:42:49;22.37;;;12.90;;
26050;SDS011;13825;53.496;10.020;2022-09-09T00:45:26;22.70;;;12.27;;
26050;SDS011;13825;53.496;10.020;2022-09-09T00:48:09;23.20;;;12.67;;
26050;SDS011;13825;53.496;10.020;2022-09-09T00:50:43;23.07;;;12.20;;
26050;SDS011;13825;53.496;10.020;2022-09-09T00:53:27;21.27;;;11.73;;
26050;SDS011;13825;53.496;10.020;2022-09-09T00:56:00;20.60;;;12.00;;
26050;SDS011;13825;53.496;10.020;2022-09-09T00:58:35;21.33;;;11.93;;
26050;SDS011;13825;53.496;10.020;2022-09-09T01:01:03;23.87;;;12.93;;
26050;SDS011;13825;53.496;10.020;2022-09-09T01:03:34;23.50;;;12.43;;
26050;SDS011;13825;53.496;10.020;2022-09-09T01:06:13;21.23;;;12.07;;
26050;SDS011;13825;53.496;10.020;2022-09-09T01:08:50;21.90;;;13.30;;
26050;SDS011;13825;53.496;10.020;2022-09-09T01:11:25;21.17;;;11.97;;
26050;SDS011;13825;53.496;10.020;2022-09-09T01:14:00;23.93;;;12.73;;
26050;SDS011;13825;53.496;10.020;2022-09-09T01:16:36;20.93;;;11.70;;
26050;SDS011;13825;53.496;10.020;2022-09-09T01:19:03;25.97;;;13.60;;
26050;SDS011;13825;53.496;10.020;2022-09-09T01:21:39;20.90;;;12.67;;
26050;SDS011;13825;53.496;10.020;2022-09-09T01:24:19;24.57;;;12.83;;
26050;SDS011;13825;53.496;10.020;2022-09-09T01:26:52;21.93;;;12.93;;
26050;SDS011;13825;53.496;10.020;2022-09-09T01:29:22;26.97;;;14.00;;
26050;SDS011;13825;53.496;10.020;2022-09-09T01:31:52;22.77;;;12.00;;
26050;SDS011;13825;53.496;10.020;2022-09-09T01:34:21;26.23;;;14.17;;
26050;SDS011;13825;53.496;10.020;2022-09-09T01:36:52;24.53;;;13.27;;
26050;SDS011;13825;53.496;10.020;2022-09-09T01:39:23;24.67;;;12.80;;
26050;SDS011;13825;53.496;10.020;2022-09-09T01:41:52;25.93;;;14.73;;
26050;SDS011;13825;53.496;10.020;2022-09-09T01:44:21;25.97;;;13.90;;
26050;SDS011;13825;53.496;10.020;2022-09-09T01:46:48;23.23;;;13.20;;
26050;SDS011;13825;53.496;10.020;2022-09-09T01:49:16;24.20;;;14.00;;
26050;SDS011;13825;53.496;10.020;2022-09-09T01:51:43;24.20;;;13.33;;
26050;SDS011;13825;53.496;10.020;2022-09-09T01:54:14;20.33;;;12.30;;
26050;SDS011;13825;53.496;10.020;2022-09-09T01:56:43;19.57;;;12.13;;
26050;SDS011;13825;53.496;10.020;2022-09-09T01:59:28;22.30;;;12.47;;
26050;SDS011;13825;53.496;10.020;2022-09-09T02:02:09;22.70;;;12.20;;
26050;SDS011;13825;53.496;10.020;2022-09-09T02:04:38;22.10;;;12.47;;
26050;SDS011;13825;53.496;10.020;2022-09-09T02:07:10;19.40;;;11.50;;
26050;SDS011;13825;53.496;10.020;2022-09-09T02:09:48;22.83;;;12.60;;
26050;SDS011;13825;53.496;10.020;2022-09-09T02:12:18;16.90;;;10.77;;
26050;SDS011;13825;53.496;10.020;2022-09-09T02:14:52;22.10;;;10.73;;
26050;SDS011;13825;53.496;10.020;2022-09-09T02:17:25;20.53;;;10.87;;
26050;SDS011;13825;53.496;10.020;2022-09-09T02:19:54;20.67;;;11.20;;
26050;SDS011;13825;53.496;10.020;2022-09-09T02:22:26;15.87;;;9.57;;
26050;SDS011;13825;53.496;10.020;2022-09-09T02:24:59;16.20;;;10.50;;
26050;SDS011;13825;53.496;10.020;2022-09-09T02:27:26;20.90;;;10.10;;
26050;SDS011;13825;53.496;10.020;2022-09-09T02:29:56;16.87;;;10.10;;
26050;SDS011;13825;53.496;10.020;2022-09-09T02:32:27;20.93;;;10.33;;
26050;SDS011;13825;53.496;10.020;2022-09-09T02:34:56;17.67;;;10.23;;
26050;SDS011;13825;53.496;10.020;2022-09-09T02:37:27;20.00;;;9.77;;
26050;SDS011;13825;53.496;10.020;2022-09-09T02:39:58;18.83;;;9.83;;
26050;SDS011;13825;53.496;10.020;2022-09-09T02:42:25;20.13;;;8.60;;
26050;SDS011;13825;53.496;10.020;2022-09-09T02:44:52;14.03;;;9.10;;
26050;SDS011;13825;53.496;10.020;2022-09-09T02:47:24;13.93;;;9.83;;
26050;SDS011;13825;53.496;10.020;2022-09-09T02:49:57;19.40;;;9.87;;
26050;SDS011;13825;53.496;10.020;2022-09-09T02:52:37;15.90;;;9.93;;
26050;SDS011;13825;53.496;10.020;2022-09-09T02:55:14;18.67;;;9.30;;
26050;SDS011;13825;53.496;10.020;2022-09-09T02:57:44;21.47;;;9.97;;
26050;SDS011;13825;53.496;10.020;2022-09-09T03:00:13;14.97;;;9.80;;
26050;SDS011;13825;53.496;10.020;2022-09-09T03:02:42;14.13;;;9.57;;
26050;SDS011;13825;53.496;10.020;2022-09-09T03:05:10;16.57;;;10.50;;
26050;SDS011;13825;53.496;10.020;2022-09-09T03:07:38;18.50;;;10.70;;
26050;SDS011;13825;53.496;10.020;2022-09-09T03:10:06;17.80;;;9.57;;
26050;SDS011;13825;53.496;10.020;2022-09-09T03:12:35;16.60;;;8.87;;
26050;SDS011;13825;53.496;10.020;2022-09-09T03:15:02;14.13;;;9.10;;
26050;SDS011;13825;53.496;10.020;2022-09-09T03:17:29;14.97;;;8.83;;
26050;SDS011;13825;53.496;10.020;2022-09-09T03:19:57;13.63;;;8.43;;
26050;SDS011;13825;53.496;10.020;2022-09-09T03:22:25;12.70;;;8.33;;
26050;SDS011;13825;53.496;10.020;2022-09-09T03:24:51;15.47;;;9.10;;
26050;SDS011;13825;53.496;10.020;2022-09-09T03:27:18;14.80;;;9.37;;
26050;SDS011;13825;53.496;10.020;2022-09-09T03:29:45;17.03;;;9.53;;
26050;SDS011;13825;53.496;10.020;2022-09-09T03:32:16;16.10;;;9.63;;
26050;SDS011;13825;53.496;10.020;2022-09-09T03:34:43;14.43;;;8.57;;
26050;SDS011;13825;53.496;10.020;2022-09-09T03:37:11;16.57;;;8.80;;
26050;SDS011;13825;53.496;10.020;2022-09-09T03:39:38;13.50;;;9.40;;
26050;SDS011;13825;53.496;10.020;2022-09-09T03:42:15;12.53;;;8.20;;
26050;SDS011;13825;53.496;10.020;2022-09-09T03:45:23;13.80;;;9.10;;
26050;SDS011;13825;53.496;10.020;2022-09-09T03:47:49;17.30;;;8.93;;
26050;SDS011;13825;53.496;10.020;2022-09-09T03:50:16;15.40;;;8.80;;
26050;SDS011;13825;53.496;10.020;2022-09-09T03:52:45;11.60;;;7.70;;
26050;SDS011;13825;53.496;10.020;2022-09-09T03:55:14;14.67;;;8.73;;
26050;SDS011;13825;53.496;10.020;2022-09-09T03:57:41;13.03;;;7.77;;
26050;SDS011;13825;53.496;10.020;2022-09-09T04:00:08;12.57;;;8.30;;
26050;SDS011;13825;53.496;10.020;2022-09-09T04:02:37;13.33;;;7.87;;
26050;SDS011;13825;53.496;10.020;2022-09-09T04:05:12;13.30;;;7.63;;
26050;SDS011;13825;53.496;10.020;2022-09-09T04:07:39;12.90;;;8.37;;
26050;SDS011;13825;53.496;10.020;2022-09-09T04:10:08;11.57;;;8.80;;
26050;SDS011;13825;53.496;10.020;2022-09-09T04:12:35;11.67;;;8.10;;
26050;SDS011;13825;53.496;10.020;2022-09-09T04:15:02;12.37;;;8.97;;
26050;SDS011;13825;53.496;10.020;2022-09-09T04:17:29;13.50;;;8.27;;
26050;SDS011;13825;53.496;10.020;2022-09-09T04:19:56;13.67;;;8.23;;
26050;SDS011;13825;53.496;10.020;2022-09-09T04:22:23;11.87;;;8.53;;
26050;SDS011;13825;53.496;10.020;2022-09-09T04:24:49;12.03;;;8.00;;
26050;SDS011;13825;53.496;10.020;2022-09-09T04:27:18;12.97;;;8.67;;
26050;SDS011;13825;53.496;10.020;2022-09-09T04:29:44;12.47;;;8.13;;
26050;SDS011;13825;53.496;10.020;2022-09-09T04:32:11;13.63;;;8.87;;
26050;SDS011;13825;53.496;10.020;2022-09-09T04:34:38;10.47;;;7.23;;
26050;SDS011;13825;53.496;10.020;2022-09-09T04:37:06;11.97;;;8.23;;
26050;SDS011;13825;53.496;10.020;2022-09-09T04:39:33;14.30;;;8.57;;
26050;SDS011;13825;53.496;10.020;2022-09-09T04:42:00;12.37;;;8.50;;
26050;SDS011;13825;53.496;10.020;2022-09-09T04:44:28;13.53;;;7.90;;
26050;SDS011;13825;53.496;10.020;2022-09-09T04:46:55;12.67;;;8.73;;
26050;SDS011;13825;53.496;10.020;2022-09-09T04:49:22;14.77;;;8.67;;
26050;SDS011;13825;53.496;10.020;2022-09-09T04:51:49;13.03;;;8.73;;
26050;SDS011;13825;53.496;10.020;2022-09-09T04:54:16;12.60;;;8.53;;
26050;SDS011;13825;53.496;10.020;2022-09-09T04:56:44;13.43;;;8.07;;
26050;SDS011;13825;53.496;10.020;2022-09-09T04:59:11;12.80;;;8.73;;
26050;SDS011;13825;53.496;10.020;2022-09-09T05:01:39;13.90;;;8.73;;
26050;SDS011;13825;53.496;10.020;2022-09-09T05:04:06;12.20;;;8.00;;
26050;SDS011;13825;53.496;10.020;2022-09-09T05:06:33;11.57;;;8.20;;
26050;SDS011;13825;53.496;10.020;2022-09-09T05:09:01;10.97;;;7.57;;
26050;SDS011;13825;53.496;10.020;2022-09-09T05:11:29;12.53;;;7.63;;
26050;SDS011;13825;53.496;10.020;2022-09-09T05:13:57;11.60;;;7.97;;
26050;SDS011;13825;53.496;10.020;2022-09-09T05:16:24;11.80;;;8.17;;
26050;SDS011;13825;53.496;10.020;2022-09-09T05:18:52;12.63;;;7.97;;
26050;SDS011;13825;53.496;10.020;2022-09-09T05:21:20;12.40;;;8.47;;
26050;SDS011;13825;53.496;10.020;2022-09-09T05:23:48;12.80;;;7.53;;
26050;SDS011;13825;53.496;10.020;2022-09-09T05:26:17;9.80;;;6.87;;
26050;SDS011;13825;53.496;10.020;2022-09-09T05:28:45;12.20;;;8.00;;
26050;SDS011;13825;53.496;10.020;2022-09-09T05:31:13;13.87;;;8.57;;
26050;SDS011;13825;53.496;10.020;2022-09-09T05:33:42;11.23;;;8.07;;
26050;SDS011;13825;53.496;10.020;2022-09-09T05:36:12;11.77;;;7.53;;
26050;SDS011;13825;53.496;10.020;2022-09-09T05:38:41;12.17;;;8.20;;
26050;SDS011;13825;53.496;10.020;2022-09-09T05:41:09;13.93;;;8.30;;
26050;SDS011;13825;53.496;10.020;2022-09-09T05:43:36;13.53;;;8.77;;
26050;SDS011;13825;53.496;10.020;2022-09-09T05:46:04;13.53;;;8.87;;
26050;SDS011;13825;53.496;10.020;2022-09-09T05:48:33;14.90;;;8.67;;
26050;SDS011;13825;53.496;10.020;2022-09-09T05:51:02;12.77;;;8.03;;
26050;SDS011;13825;53.496;10.020;2022-09-09T05:53:31;14.13;;;8.77;;
26050;SDS011;13825;53.496;10.020;2022-09-09T05:55:59;14.20;;;9.33;;
26050;SDS011;13825;53.496;10.020;2022-09-09T05:58:28;13.03;;;8.60;;
26050;SDS011;13825;53.496;10.020;2022-09-09T06:01:03;12.33;;;8.40;;
26050;SDS011;13825;53.496;10.020;2022-09-09T06:03:30;14.13;;;8.63;;
26050;SDS011;13825;53.496;10.020;2022-09-09T06:05:58;12.83;;;8.83;;
26050;SDS011;13825;53.496;10.020;2022-09-09T06:08:25;14.63;;;8.70;;
26050;SDS011;13825;53.496;10.020;2022-09-09T06:11:00;13.93;;;8.50;;
26050;SDS011;13825;53.496;10.020;2022-09-09T06:13:27;10.50;;;7.40;;
26050;SDS011;13825;53.496;10.020;2022-09-09T06:15:54;12.50;;;7.37;;
26050;SDS011;13825;53.496;10.020;2022-09-09T06:18:21;11.67;;;7.43;;
26050;SDS011;13825;53.496;10.020;2022-09-09T06:20:55;11.33;;;7.60;;
26050;SDS011;13825;53.496;10.020;2022-09-09T06:23:22;11.93;;;7.20;;
26050;SDS011;13825;53.496;10.020;2022-09-09T06:25:50;8.77;;;6.60;;
26050;SDS011;13825;53.496;10.020;2022-09-09T06:28:18;13.03;;;7.00;;
26050;SDS011;13825;53.496;10.020;2022-09-09T06:30:45;8.43;;;6.03;;
26050;SDS011;13825;53.496;10.020;2022-09-09T06:33:12;9.77;;;6.40;;
26050;SDS011;13825;53.496;10.020;2022-09-09T06:35:39;9.97;;;6.33;;
26050;SDS011;13825;53.496;10.020;2022-09-09T06:38:05;8.43;;;5.77;;
26050;SDS011;13825;53.496;10.020;2022-09-09T06:40:33;11.87;;;6.60;;
26050;SDS011;13825;53.496;10.020;2022-09-09T06:43:00;9.57;;;6.20;;
26050;SDS011;13825;53.496;10.020;2022-09-09T06:45:28;10.47;;;5.90;;
26050;SDS011;13825;53.496;10.020;2022-09-09T06:47:56;7.83;;;5.90;;
26050;SDS011;13825;53.496;10.020;2022-09-09T06:50:22;7.67;;;5.90;;
26050;SDS011;13825;53.496;10.020;2022-09-09T06:52:49;7.03;;;5.27;;
26050;SDS011;13825;53.496;10.020;2022-09-09T06:55:16;7.93;;;5.63;;
26050;SDS011;13825;53.496;10.020;2022-09-09T06:57:43;8.70;;;5.57;;
26050;SDS011;13825;53.496;10.020;2022-09-09T07:00:11;7.97;;;5.87;;
26050;SDS011;13825;53.496;10.020;2022-09-09T07:02:40;7.40;;;5.37;;
26050;SDS011;13825;53.496;10.020;2022-09-09T07:05:07;8.10;;;5.43;;
26050;SDS011;13825;53.496;10.020;2022-09-09T07:07:34;8.30;;;5.20;;
26050;SDS011;13825;53.496;10.020;2022-09-09T07:10:01;6.70;;;5.00;;
26050;SDS011;13825;53.496;10.020;2022-09-09T07:12:29;6.47;;;4.90;;
26050;SDS011;13825;53.496;10.020;2022-09-09T07:14:56;10.83;;;4.93;;
26050;SDS011;13825;53.496;10.020;2022-09-09T07:17:23;6.23;;;4.50;;
26050;SDS011;13825;53.496;10.020;2022-09-09T07:19:51;8.63;;;5.20;;
26050;SDS011;13825;53.496;10.020;2022-09-09T07:22:18;5.37;;;4.67;;
26050;SDS011;13825;53.496;10.020;2022-09-09T07:24:45;5.87;;;4.57;;
26050;SDS011;13825;53.496;10.020;2022-09-09T07:27:12;5.87;;;4.70;;
26050;SDS011;13825;53.496;10.020;2022-09-09T07:29:38;7.77;;;4.27;;
26050;SDS011;13825;53.496;10.020;2022-09-09T07:32:05;10.70;;;5.03;;
26050;SDS011;13825;53.496;10.020;2022-09-09T07:34:33;6.10;;;4.53;;
26050;SDS011;13825;53.496;10.020;2022-09-09T07:37:01;6.17;;;4.00;;
26050;SDS011;13825;53.496;10.020;2022-09-09T07:39:28;7.30;;;4.30;;
26050;SDS011;13825;53.496;10.020;2022-09-09T07:41:55;5.30;;;3.97;;
26050;SDS011;13825;53.496;10.020;2022-09-09T07:44:23;5.87;;;4.17;;
26050;SDS011;13825;53.496;10.020;2022-09-09T07:46:51;4.23;;;3.40;;
26050;SDS011;13825;53.496;10.020;2022-09-09T07:49:18;6.10;;;4.83;;
26050;SDS011;13825;53.496;10.020;2022-09-09T07:51:46;5.90;;;4.00;;
26050;SDS011;13825;53.496;10.020;2022-09-09T07:54:16;6.73;;;4.10;;
26050;SDS011;13825;53.496;10.020;2022-09-09T07:56:45;4.23;;;3.67;;
26050;SDS011;13825;53.496;10.020;2022-09-09T07:59:12;5.83;;;3.70;;
26050;SDS011;13825;53.496;10.020;2022-09-09T08:01:40;4.83;;;3.73;;
26050;SDS011;13825;53.496;10.020;2022-09-09T08:04:09;6.20;;;3.97;;
26050;SDS011;13825;53.496;10.020;2022-09-09T08:06:40;5.27;;;4.00;;
26050;SDS011;13825;53.496;10.020;2022-09-09T08:09:09;4.93;;;3.77;;
26050;SDS011;13825;53.496;10.020;2022-09-09T08:11:38;4.23;;;3.70;;
26050;SDS011;13825;53.496;10.020;2022-09-09T08:14:06;4.63;;;3.70;;
26050;SDS011;13825;53.496;10.020;2022-09-09T08:16:34;4.33;;;3.03;;
26050;SDS011;13825;53.496;10.020;2022-09-09T08:19:03;7.13;;;4.30;;
26050;SDS011;13825;53.496;10.020;2022-09-09T08:21:30;4.03;;;3.63;;
26050;SDS011;13825;53.496;10.020;2022-09-09T08:23:58;4.00;;;3.47;;
26050;SDS011;13825;53.496;10.020;2022-09-09T08:26:27;3.90;;;3.20;;
26050;SDS011;13825;53.496;10.020;2022-09-09T08:28:57;3.70;;;3.23;;
26050;SDS011;13825;53.496;10.020;2022-09-09T08:31:26;3.90;;;2.97;;
26050;SDS011;13825;53.496;10.020;2022-09-09T08:33:54;4.97;;;3.03;;
26050;SDS011;13825;53.496;10.020;2022-09-09T08:36:22;5.93;;;3.17;;
26050;SDS011;13825;53.496;10.020;2022-09-09T08:38:51;4.07;;;3.23;;
26050;SDS011;13825;53.496;10.020;2022-09-09T08:44:26;3.20;;;2.70;;
26050;SDS011;13825;53.496;10.020;2022-09-09T08:47:04;4.60;;;2.90;;
26050;SDS011;13825;53.496;10.020;2022-09-09T08:49:45;3.77;;;3.07;;
26050;SDS011;13825;53.496;10.020;2022-09-09T08:52:22;4.77;;;3.00;;
26050;SDS011;13825;53.496;10.020;2022-09-09T08:54:53;3.33;;;2.70;;
26050;SDS011;13825;53.496;10.020;2022-09-09T08:57:28;5.57;;;3.90;;
26050;SDS011;13825;53.496;10.020;2022-09-09T08:59:59;5.27;;;3.07;;
26050;SDS011;13825;53.496;10.020;2022-09-09T09:02:28;3.63;;;3.03;;
26050;SDS011;13825;53.496;10.020;2022-09-09T09:05:06;5.27;;;2.83;;
26050;SDS011;13825;53.496;10.020;2022-09-09T09:07:44;3.27;;;2.70;;
26050;SDS011;13825;53.496;10.020;2022-09-09T09:10:26;4.43;;;2.80;;
26050;SDS011;13825;53.496;10.020;2022-09-09T09:13:04;3.47;;;2.70;;
26050;SDS011;13825;53.496;10.020;2022-09-09T09:15:39;3.00;;;2.57;;
26050;SDS011;13825;53.496;10.020;2022-09-09T09:18:08;5.00;;;2.50;;
26050;SDS011;13825;53.496;10.020;2022-09-09T09:20:42;3.87;;;2.53;;
26050;SDS011;13825;53.496;10.020;2022-09-09T09:23:17;2.90;;;2.40;;
26050;SDS011;13825;53.496;10.020;2022-09-09T09:25:48;3.67;;;2.67;;
26050;SDS011;13825;53.496;10.020;2022-09-09T09:28:17;3.33;;;2.43;;
26050;SDS011;13825;53.496;10.020;2022-09-09T09:30:48;4.40;;;2.80;;
26050;SDS011;13825;53.496;10.020;2022-09-09T09:33:20;2.60;;;2.40;;
26050;SDS011;13825;53.496;10.020;2022-09-09T09:35:50;3.03;;;2.50;;
26050;SDS011;13825;53.496;10.020;2022-09-09T09:38:19;2.87;;;2.37;;
26050;SDS011;13825;53.496;10.020;2022-09-09T09:40:48;3.90;;;2.73;;
26050;SDS011;13825;53.496;10.020;2022-09-09T09:43:18;2.30;;;2.10;;
26050;SDS011;13825;53.496;10.020;2022-09-09T09:45:49;3.47;;;2.50;;
26050;SDS011;13825;53.496;10.020;2022-09-09T09:48:16;2.50;;;2.30;;
26050;SDS011;13825;53.496;10.020;2022-09-09T09:50:46;3.33;;;2.20;;
26050;SDS011;13825;53.496;10.020;2022-09-09T09:53:22;5.10;;;2.50;;
26050;SDS011;13825;53.496;10.020;2022-09-09T09:55:53;3.37;;;2.50;;
26050;SDS011;13825;53.496;10.020;2022-09-09T09:58:23;4.43;;;2.40;;
26050;SDS011;13825;53.496;10.020;2022-09-09T10:00:54;4.00;;;2.30;;
26050;SDS011;13825;53.496;10.020;2022-09-09T10:03:22;2.80;;;2.07;;
26050;SDS011;13825;53.496;10.020;2022-09-09T10:05:52;4.13;;;2.03;;
26050;SDS011;13825;53.496;10.020;2022-09-09T10:08:19;6.43;;;2.23;;
26050;SDS011;13825;53.496;10.020;2022-09-09T10:10:57;3.30;;;1.80;;
26050;SDS011;13825;53.496;10.020;2022-09-09T10:13:50;2.10;;;1.50;;
26050;SDS011;13825;53.496;10.020;2022-09-09T10:16:32;3.33;;;1.47;;
26050;SDS011;13825;53.496;10.020;2022-09-09T10:19:12;1.40;;;1.30;;
26050;SDS011;13825;53.496;10.020;2022-09-09T10:21:47;1.40;;;1.30;;
26050;SDS011;13825;53.496;10.020;2022-09-09T10:24:38;2.33;;;1.03;;
26050;SDS011;13825;53.496;10.020;2022-09-09T10:27:25;3.37;;;1.50;;
26050;SDS011;13825;53.496;10.020;2022-09-09T10:30:06;2.73;;;1.30;;
26050;SDS011;13825;53.496;10.020;2022-09-09T10:32:51;1.90;;;1.07;;
26050;SDS011;13825;53.496;10.020;2022-09-09T10:35:29;1.03;;;0.80;;
26050;SDS011;13825;53.496;10.020;2022-09-09T10:38:15;1.27;;;0.90;;
26050;SDS011;13825;53.496;10.020;2022-09-09T10:40:46;1.63;;;0.93;;
26050;SDS011;13825;53.496;10.020;2022-09-09T10:43:31;0.87;;;0.87;;
26050;SDS011;13825;53.496;10.020;2022-09-09T10:46:20;1.53;;;1.00;;
26050;SDS011;13825;53.496;10.020;2022-09-09T10:48:58;2.57;;;1.10;;
26050;SDS011;13825;53.496;10.020;2022-09-09T10:51:42;2.43;;;1.00;;
26050;SDS011;13825;53.496;10.020;2022-09-09T10:54:28;1.17;;;1.07;;
26050;SDS011;13825;53.496;10.020;2022-09-09T10:57:05;2.60;;;1.10;;
26050;SDS011;13825;53.496;10.020;2022-09-09T10:59:40;1.57;;;1.03;;
26050;SDS011;13825;53.496;10.020;2022-09-09T11:02:12;1.20;;;1.10;;
26050;SDS011;13825;53.496;10.020;2022-09-09T11:04:48;2.43;;;1.30;;
26050;SDS011;13825;53.496;10.020;2022-09-09T11:07:22;1.60;;;1.23;;
26050;SDS011;13825;53.496;10.020;2022-09-09T11:09:56;2.27;;;1.37;;
26050;SDS011;13825;53.496;10.020;2022-09-09T11:12:27;3.60;;;1.40;;
26050;SDS011;13825;53.496;10.020;2022-09-09T11:14:57;1.30;;;1.20;;
26050;SDS011;13825;53.496;10.020;2022-09-09T11:17:31;1.47;;;1.30;;
26050;SDS011;13825;53.496;10.020;2022-09-09T11:20:10;1.73;;;1.30;;
26050;SDS011;13825;53.496;10.020;2022-09-09T11:22:39;2.80;;;1.37;;
26050;SDS011;13825;53.496;10.020;2022-09-09T11:25:16;1.40;;;1.30;;
26050;SDS011;13825;53.496;10.020;2022-09-09T11:28:01;2.23;;;1.60;;
26050;SDS011;13825;53.496;10.020;2022-09-09T11:30:43;3.37;;;1.37;;
26050;SDS011;13825;53.496;10.020;2022-09-09T11:33:31;2.00;;;1.47;;
26050;SDS011;13825;53.496;10.020;2022-09-09T11:36:30;1.47;;;1.33;;
26050;SDS011;13825;53.496;10.020;2022-09-09T11:39:23;2.40;;;1.40;;
26050;SDS011;13825;53.496;10.020;2022-09-09T11:42:15;3.17;;;1.60;;
26050;SDS011;13825;53.496;10.020;2022-09-09T11:44:44;2.00;;;1.50;;
26050;SDS011;13825;53.496;10.020;2022-09-09T11:47:22;2.07;;;1.40;;
26050;SDS011;13825;53.496;10.020;2022-09-09T11:49:54;2.80;;;1.30;;
26050;SDS011;13825;53.496;10.020;2022-09-09T11:52:24;1.40;;;1.27;;
26050;SDS011;13825;53.496;10.020;2022-09-09T11:55:08;3.23;;;1.50;;
26050;SDS011;13825;53.496;10.020;2022-09-09T11:57:37;3.53;;;1.60;;
26050;SDS011;13825;53.496;10.020;2022-09-09T12:00:05;1.97;;;1.73;;
26050;SDS011;13825;53.496;10.020;2022-09-09T12:02:33;2.47;;;1.43;;
26050;SDS011;13825;53.496;10.020;2022-09-09T12:05:14;2.87;;;1.30;;
26050;SDS011;13825;53.496;10.020;2022-09-09T12:08:06;2.63;;;1.30;;
26050;SDS011;13825;53.496;10.020;2022-09-09T12:10:38;2.47;;;1.47;;
26050;SDS011;13825;53.496;10.020;2022-09-09T12:13:18;2.33;;;1.90;;
26050;SDS011;13825;53.496;10.020;2022-09-09T12:16:00;1.90;;;1.43;;
26050;SDS011;13825;53.496;10.020;2022-09-09T12:19:28;2.57;;;1.70;;
26050;SDS011;13825;53.496;10.020;2022-09-09T12:22:13;3.03;;;1.47;;
26050;SDS011;13825;53.496;10.020;2022-09-09T12:24:51;2.37;;;1.30;;
26050;SDS011;13825;53.496;10.020;2022-09-09T12:27:40;2.30;;;1.57;;
26050;SDS011;13825;53.496;10.020;2022-09-09T12:34:18;2.70;;;1.63;;
26050;SDS011;13825;53.496;10.020;2022-09-09T12:37:02;1.57;;;1.47;;
26050;SDS011;13825;53.496;10.020;2022-09-09T12:40:02;2.27;;;2.07;;
26050;SDS011;13825;53.496;10.020;2022-09-09T12:43:18;1.83;;;1.30;;
26050;SDS011;13825;53.496;10.020;2022-09-09T12:45:48;3.93;;;1.70;;
26050;SDS011;13825;53.496;10.020;2022-09-09T12:48:38;5.73;;;2.50;;
26050;SDS011;13825;53.496;10.020;2022-09-09T12:51:24;4.07;;;2.67;;
26050;SDS011;13825;53.496;10.020;2022-09-09T12:54:04;3.53;;;2.70;;
26050;SDS011;13825;53.496;10.020;2022-09-09T13:03:31;4.53;;;2.87;;
26050;SDS011;13825;53.496;10.020;2022-09-09T13:09:48;3.37;;;2.87;;
26050;SDS011;13825;53.496;10.020;2022-09-09T13:12:22;5.70;;;3.00;;
26050;SDS011;13825;53.496;10.020;2022-09-09T13:15:14;9.00;;;3.37;;
26050;SDS011;13825;53.496;10.020;2022-09-09T13:17:52;4.47;;;3.17;;
26050;SDS011;13825;53.496;10.020;2022-09-09T13:20:58;5.90;;;3.80;;
26050;SDS011;13825;53.496;10.020;2022-09-09T13:23:39;4.73;;;3.40;;
26050;SDS011;13825;53.496;10.020;2022-09-09T13:27:34;3.90;;;3.20;;
26050;SDS011;13825;53.496;10.020;2022-09-09T13:30:19;3.70;;;3.20;;
26050;SDS011;13825;53.496;10.020;2022-09-09T13:32:59;4.37;;;3.37;;
26050;SDS011;13825;53.496;10.020;2022-09-09T13:35:35;4.80;;;3.53;;
26050;SDS011;13825;53.496;10.020;2022-09-09T13:38:16;7.40;;;3.50;;
26050;SDS011;13825;53.496;10.020;2022-09-09T13:40:54;5.97;;;3.43;;
26050;SDS011;13825;53.496;10.020;2022-09-09T13:43:47;4.97;;;3.10;;
26050;SDS011;13825;53.496;10.020;2022-09-09T13:46:23;4.97;;;3.07;;
26050;SDS011;13825;53.496;10.020;2022-09-09T13:48:55;5.10;;;3.47;;
26050;SDS011;13825;53.496;10.020;2022-09-09T13:51:34;3.93;;;3.50;;
26050;SDS011;13825;53.496;10.020;2022-09-09T13:54:02;4.67;;;3.70;;
26050;SDS011;13825;53.496;10.020;2022-09-09T13:56:31;5.73;;;3.93;;
26050;SDS011;13825;53.496;10.020;2022-09-09T13:58:59;6.07;;;3.87;;
26050;SDS011;13825;53.496;10.020;2022-09-09T14:01:26;5.27;;;3.90;;
26050;SDS011;13825;53.496;10.020;2022-09-09T14:03:53;6.53;;;4.20;;
26050;SDS011;13825;53.496;10.020;2022-09-09T14:06:20;4.17;;;3.77;;
26050;SDS011;13825;53.496;10.020;2022-09-09T14:08:48;4.77;;;3.57;;
26050;SDS011;13825;53.496;10.020;2022-09-09T14:11:18;6.30;;;3.87;;
26050;SDS011;13825;53.496;10.020;2022-09-09T14:13:46;5.73;;;3.57;;
26050;SDS011;13825;53.496;10.020;2022-09-09T14:16:16;4.10;;;3.70;;
26050;SDS011;13825;53.496;10.020;2022-09-09T14:18:43;4.83;;;3.33;;
26050;SDS011;13825;53.496;10.020;2022-09-09T14:21:10;3.87;;;3.33;;
26050;SDS011;13825;53.496;10.020;2022-09-09T14:23:37;3.57;;;2.80;;
26050;SDS011;13825;53.496;10.020;2022-09-09T14:26:05;5.40;;;2.70;;
26050;SDS011;13825;53.496;10.020;2022-09-09T14:28:33;2.73;;;2.53;;
26050;SDS011;13825;53.496;10.020;2022-09-09T14:31:00;5.63;;;2.57;;
26050;SDS011;13825;53.496;10.020;2022-09-09T14:33:30;2.63;;;2.43;;
26050;SDS011;13825;53.496;10.020;2022-09-09T14:35:57;4.37;;;2.60;;
26050;SDS011;13825;53.496;10.020;2022-09-09T14:38:31;2.90;;;2.70;;
26050;SDS011;13825;53.496;10.020;2022-09-09T14:41:03;4.30;;;2.93;;
26050;SDS011;13825;53.496;10.020;2022-09-09T14:43:36;3.83;;;2.47;;
26050;SDS011;13825;53.496;10.020;2022-09-09T14:46:07;5.17;;;2.00;;
26050;SDS011;13825;53.496;10.020;2022-09-09T14:48:37;2.80;;;1.87;;
26050;SDS011;13825;53.496;10.020;2022-09-09T14:51:07;2.40;;;1.93;;
26050;SDS011;13825;53.496;10.020;2022-09-09T14:54:31;3.47;;;1.97;;
26050;SDS011;13825;53.496;10.020;2022-09-09T14:57:17;2.37;;;2.00;;
26050;SDS011;13825;53.496;10.020;2022-09-09T14:59:47;2.80;;;2.20;;
26050;SDS011;13825;53.496;10.020;2022-09-09T15:02:15;2.57;;;2.13;;
26050;SDS011;13825;53.496;10.020;2022-09-09T15:04:44;2.93;;;2.40;;
26050;SDS011;13825;53.496;10.020;2022-09-09T15:07:11;3.17;;;2.40;;
26050;SDS011;13825;53.496;10.020;2022-09-09T15:09:38;4.30;;;2.30;;
26050;SDS011;13825;53.496;10.020;2022-09-09T15:12:06;3.57;;;2.47;;
26050;SDS011;13825;53.496;10.020;2022-09-09T15:14:34;3.23;;;1.87;;
26050;SDS011;13825;53.496;10.020;2022-09-09T15:17:07;2.13;;;1.93;;